createdAt,value
2023-01-10T00:03:01.263Z,7.20
2023-01-10T00:09:04.927Z,7.15
2023-01-10T00:15:07.959Z,6.99
2023-01-10T00:21:10.733Z,7.13
2023-01-10T00:27:22.371Z,6.91
2023-01-10T00:33:24.492Z,6.98
2023-01-10T00:39:28.083Z,7.04
2023-01-10T00:45:30.985Z,7.01
2023-01-10T00:51:34.251Z,6.94
2023-01-10T00:57:38.028Z,7.07
2023-01-10T01:03:41.249Z,7.07
2023-01-10T01:10:02.598Z,6.77
2023-01-10T01:16:06.010Z,6.79
2023-01-10T01:22:08.156Z,6.68
2023-01-10T01:28:14.301Z,6.74
2023-01-10T01:34:16.675Z,6.76
2023-01-10T01:40:22.501Z,6.67
2023-01-10T01:46:24.625Z,6.68
2023-01-10T01:52:32.277Z,6.83
2023-01-10T01:58:45.261Z,6.93
2023-01-10T02:04:54.258Z,6.78
2023-01-10T02:11:09.856Z,6.97
2023-01-10T02:17:14.285Z,7.17
2023-01-10T02:23:53.981Z,7.16
2023-01-10T02:30:22.502Z,7.15
2023-01-10T02:36:37.104Z,7.29
2023-01-10T02:42:52.657Z,7.24
2023-01-10T02:48:56.331Z,7.20
2023-01-10T02:55:02.547Z,7.36
2023-01-10T03:01:29.769Z,7.28
2023-01-10T03:07:51.019Z,7.24
2023-01-10T03:14:01.221Z,7.49
2023-01-10T03:20:06.332Z,7.52
2023-01-10T03:26:10.403Z,7.60
2023-01-10T03:32:17.483Z,7.72
2023-01-10T03:38:39.972Z,7.74
2023-01-10T03:45:06.024Z,7.85
2023-01-10T03:51:09.794Z,7.71
2023-01-10T03:57:23.912Z,7.65
2023-01-10T04:03:26.059Z,7.71
2023-01-10T04:09:29.700Z,7.63
2023-01-10T04:15:32.958Z,7.56
2023-01-10T04:21:37.315Z,7.57
2023-01-10T04:27:40.595Z,7.71
2023-01-10T04:33:43.846Z,7.78
2023-01-10T04:39:46.126Z,7.67
2023-01-10T04:45:49.716Z,7.65
2023-01-10T04:52:03.184Z,7.64
2023-01-10T04:58:06.541Z,7.56
2023-01-10T05:04:12.948Z,7.47
